• Join FlightAware (Why Join?)
  • Login
  • US Flag 
05:30AM EDT


 

Airport Tracker/Info


-or-


 

Live Flight TrackerFlight Track Log ✈ JZA8343 ✈ 17-Jul-2012 ✈ CYWG - CYYC

Flight Track Log - Related Links

Times and Time Zones

All times are in EDT time to prevent confusion due to time zone crossing. See the JZA8343 flight status page for this flight to view local times or setup timezone preferences in your user account.

Time Position Orientation Groundspeed Altitude Reporting Facility
EDT Latitude Longitude Course Direction KTS MPH feet Rate Location/Type
09:58PM 49.9000 -97.2333 360° North 150 173 1,500  Level Winnipeg Center
09:59PM 49.9500 -97.2333 180° South 200 230 3,100 -60 Climbing Winnipeg Center
10:06PM 50.4523 -103.1850 96° East  Level FlightAware Approximate
10:07PM 50.5651 -103.9632 96° East  Level FlightAware Approximate
10:08PM 50.6726 -104.7449 96° East  Level FlightAware Approximate
10:09PM 50.7832 -105.5269 96° East  Level FlightAware Approximate
10:10PM 50.8444 -106.3244 96° East  Level FlightAware Approximate
10:11PM 50.9002 -107.1238 95° East  Level FlightAware Approximate
10:12PM 50.9504 -107.9250 95° East  Level FlightAware Approximate
10:13PM 50.9952 -108.7279 94° East  Level FlightAware Approximate
10:14PM 51.2027 -109.4196 95° East  Level FlightAware Approximate
10:15PM 51.2546 -110.2247 94° East  Level FlightAware Approximate
10:16PM 51.2784 -111.0335 94° East  Level FlightAware Approximate
10:17PM 51.3000 -111.8437 93° East  Level FlightAware Approximate
10:18PM 51.3001 -112.6554 92° East  Level FlightAware Approximate
10:19PM 51.1976 -113.4459 91° East  Level FlightAware Approximate
10:20PM 51.1000 -114.0167 90° East  Level FlightAware Approximate
10:21PM 51.6009 -114.1482 92° East  Level Estimated
10:22PM 49.9000 -97.2333 180° South  Level FlightAware Approximate
10:23PM 50.0112 -98.0030 104° East  Level FlightAware Approximate
10:24PM 50.1173 -98.7762 103° East  Level FlightAware Approximate
10:25PM 50.2183 -99.5528 102° East  Level FlightAware Approximate
10:26PM 50.3140 -100.3326 101° East  Level FlightAware Approximate
10:27PM 50.4045 -101.1154 100° East  Level FlightAware Approximate
10:28PM 50.4898 -101.9011 100° East  Level FlightAware Approximate
10:29PM 50.5697 -102.6896 99° East  Level FlightAware Approximate
10:30PM 50.6443 -103.4807 98° East  Level FlightAware Approximate
10:31PM 50.7135 -104.2741 98° East  Level FlightAware Approximate
10:32PM 50.7773 -105.0699 97° East  Level FlightAware Approximate
10:33PM 50.8357 -105.8677 96° East  Level FlightAware Approximate
10:34PM 50.8886 -106.6675 96° East  Level FlightAware Approximate
10:35PM 50.9361 -107.4689 95° East  Level FlightAware Approximate
10:36PM 50.9781 -108.2719 95° East  Level FlightAware Approximate
10:37PM 51.0145 -109.0763 94° East  Level FlightAware Approximate
10:38PM 51.0454 -109.8818 93° East  Level FlightAware Approximate
10:39PM 51.0708 -110.6883 93° East  Level FlightAware Approximate
10:40PM 51.0906 -111.4957 92° East  Level FlightAware Approximate
10:41PM 51.1049 -112.3035 91° East  Level FlightAware Approximate
10:42PM 51.1135 -113.1118 91° East  Level FlightAware Approximate
10:43PM 51.1167 -113.9203 90° East  Level FlightAware Approximate
10:44PM 51.1000 -114.0167 90° East  Level FlightAware Approximate
10:45PM 51.6009 -114.1482 92° East  Level Estimated
10:46PM 49.9000 -97.2333 180° South  Level FlightAware Approximate
10:47PM 50.0112 -98.0030 104° East  Level FlightAware Approximate
10:48PM 50.1173 -98.7762 103° East  Level FlightAware Approximate
10:49PM 50.2183 -99.5528 102° East  Level FlightAware Approximate
10:50PM 50.3140 -100.3326 101° East  Level FlightAware Approximate
10:51PM 50.4045 -101.1154 100° East  Level FlightAware Approximate
10:52PM 50.4898 -101.9011 100° East  Level FlightAware Approximate
10:53PM 50.5697 -102.6896 99° East  Level FlightAware Approximate
10:54PM 50.6443 -103.4807 98° East  Level FlightAware Approximate
10:55PM 50.7135 -104.2741 98° East  Level FlightAware Approximate
10:56PM 50.7773 -105.0699 97° East  Level FlightAware Approximate
10:57PM 50.8357 -105.8677 96° East  Level FlightAware Approximate
10:58PM 50.8886 -106.6675 96° East  Level FlightAware Approximate
10:59PM 50.9361 -107.4689 95° East  Level FlightAware Approximate
11:00PM 50.9781 -108.2719 95° East  Level FlightAware Approximate
11:01PM 51.0145 -109.0763 94° East  Level FlightAware Approximate
11:02PM 51.0454 -109.8818 93° East  Level FlightAware Approximate
11:03PM 51.0708 -110.6883 93° East  Level FlightAware Approximate
11:04PM 51.0906 -111.4957 92° East  Level FlightAware Approximate
11:05PM 51.1049 -112.3035 91° East  Level FlightAware Approximate
11:06PM 51.1135 -113.1118 91° East  Level FlightAware Approximate
11:07PM 51.1167 -113.9203 90° East  Level FlightAware Approximate
11:08PM 51.1000 -114.0167 90° East  Level FlightAware Approximate
11:09PM 51.6009 -114.1482 92° East  Level Estimated
11:10PM 49.9894 -97.9395 103° East  Level FlightAware Approximate
11:11PM 50.0119 -98.0985 103° East  Level FlightAware Approximate
11:12PM 50.0342 -98.2578 102° East  Level FlightAware Approximate
11:13PM 50.0563 -98.4172 102° East  Level FlightAware Approximate
11:14PM 50.0781 -98.5767 102° East  Level FlightAware Approximate
11:15PM 50.0998 -98.7364 102° East  Level FlightAware Approximate
11:16PM 50.1212 -98.8962 102° East  Level FlightAware Approximate
11:17PM 50.1424 -99.0562 102° East  Level FlightAware Approximate
11:18PM 50.1634 -99.2163 102° East  Level FlightAware Approximate
11:19PM 50.1842 -99.3765 102° East  Level FlightAware Approximate
11:20PM 49.8833 -97.2333 327° Northwest 20 23 700  Level Winnipeg Center
11:21PM 49.9000 -97.2500 302° West 180 207 1,400 1,200 Climbing Winnipeg Center
11:22PM 49.9333 -97.3333 281° West 250 288 3,100 2,400 Climbing Winnipeg Center
11:23PM 49.9500 -97.4667 270° West 280 322 6,300 3,180 Climbing Winnipeg Center
11:24PM 49.9500 -97.5667 281° West 280 322 9,500 2,760 Climbing Winnipeg Center
11:25PM 49.9667 -97.7000 280° West 300 345 11,900 2,100 Climbing Winnipeg Center
11:26PM 49.9833 -97.8500 280° West 340 391 13,700 1,680 Climbing Winnipeg Center
11:27PM 50.0000 -98.0000 278° West 370 426 15,300 1,560 Climbing Winnipeg Center
11:28PM 50.0167 -98.1833 279° West 400 460 16,900 1,500 Climbing Winnipeg Center
11:29PM 50.0333 -98.3500 286° West 410 472 18,400 1,500 Climbing Winnipeg Center
11:30PM 50.0667 -98.5333 286° West 420 483 19,900 1,380 Climbing Winnipeg Center
11:31PM 50.1000 -98.7167 286° West 430 495 21,200 1,380 Climbing Winnipeg Center
11:32PM 50.1333 -98.9000 286° West 440 506 22,700 1,380 Climbing Winnipeg Center
11:33PM 50.1667 -99.0833 277° West 440 506 24,000 1,140 Climbing Winnipeg Center
11:34PM 50.1833 -99.3000 286° West 450 518 25,000 1,200 Climbing Winnipeg Center
11:35PM 50.2167 -99.4833 278° West 450 518 26,400 1,440 Climbing Winnipeg Center
11:36PM 50.2333 -99.6667 286° West 450 518 27,900 1,500 Climbing Winnipeg Center
11:37PM 50.2667 -99.8500 278° West 440 506 29,500 1,620 Climbing Winnipeg Center
11:38PM 50.2833 -100.0333 286° West 430 495 31,200 1,560 Climbing Winnipeg Center
11:39PM 50.3167 -100.2167 286° West 420 483 32,700 1,200 Climbing Winnipeg Center
11:40PM 50.3500 -100.4000 279° West 420 483 33,700 1,020 Climbing Winnipeg Center
11:41PM 50.3667 -100.5667 278° West 420 483 34,800 1,020 Climbing Winnipeg Center
11:42PM 50.3833 -100.7500 286° West 420 483 35,800 1,020 Climbing Winnipeg Center
11:43PM 50.4167 -100.9333 278° West 420 483 36,900 960 Climbing Winnipeg Center
11:44PM 50.4333 -101.1167 279° West 410 472 37,800 540 Climbing Winnipeg Center
11:45PM 50.4500 -101.2833 286° West 410 472 38,000 60 Climbing Winnipeg Center
11:46PM 50.4833 -101.4667 278° West 420 483 38,000  Level Winnipeg Center
11:47PM 50.5000 -101.6500 286° West 430 495 38,000  Level Winnipeg Center
11:48PM 50.5333 -101.8333 278° West 430 495 38,000  Level Winnipeg Center
11:49PM 50.5500 -102.0333 286° West 430 495 38,000  Level Winnipeg Center
11:50PM 50.5833 -102.2167 280° West 430 495 38,000  Level Winnipeg Center
11:51PM 50.6000 -102.3667 277° West 430 495 38,000  Level Winnipeg Center
11:52PM 50.6167 -102.5833 279° West 430 495 38,000  Level Winnipeg Center
11:53PM 50.6333 -102.7500 284° West 430 495 38,000  Level Winnipeg Center
11:54PM 50.6667 -102.9667 280° West 430 495 38,000  Level Winnipeg Center
11:55PM 50.6833 -103.1167 277° West 440 506 38,000  Level Winnipeg Center
11:56PM 50.7000 -103.3333 288° West 440 506 38,000  Level Winnipeg Center
11:57PM 50.7333 -103.5000 277° West 440 506 38,000  Level Winnipeg Center
11:58PM 50.7500 -103.7167 278° West 440 506 38,000  Level Winnipeg Center
11:59PM 50.7667 -103.9000 279° West 440 506 38,000  Level Winnipeg Center
12:00AM 50.7833 -104.0667 277° West 440 506 38,000  Level Winnipeg Center
12:01AM 50.8000 -104.2833 278° West 440 506 38,000  Level Winnipeg Center
12:02AM 50.8167 -104.4667 285° West 440 506 38,000  Level Winnipeg Center
12:03AM 50.8500 -104.6667 278° West 440 506 38,000  Level Winnipeg Center
12:04AM 50.8667 -104.8500 278° West 440 506 38,000  Level Winnipeg Center
12:05AM 50.8833 -105.0333 278° West 440 506 38,000  Level Winnipeg Center
12:06AM 50.9000 -105.2333 270° West 440 506 38,000  Level Winnipeg Center
12:07AM 50.9000 -105.4500 286° West 450 518 38,000  Level Winnipeg Center
12:08AM 50.9333 -105.6333 278° West 450 518 38,000  Level Winnipeg Center
12:09AM 50.9500 -105.8333 278° West 450 518 38,000  Level Winnipeg Center
12:10AM 50.9667 -106.0333 278° West 450 518 38,000  Level Edmonton Center
12:11AM 50.9833 -106.2167 270° West 440 506 38,000  Level Edmonton Center
12:12AM 50.9833 -106.4333 278° West 440 506 38,000  Level Edmonton Center
12:13AM 51.0000 -106.6333 278° West 440 506 38,000  Level Edmonton Center
12:14AM 51.0167 -106.8167 278° West 440 506 38,000  Level Edmonton Center
12:15AM 51.0333 -107.0000 278° West 440 506 38,000  Level Edmonton Center
12:16AM 51.0500 -107.2000 285° West 440 506 38,000  Level Edmonton Center
12:17AM 51.0833 -107.4000 270° West 440 506 38,000  Level Edmonton Center
12:18AM 51.0833 -107.6000 277° West 440 506 38,000  Level Edmonton Center
12:19AM 51.1000 -107.8167 278° West 440 506 38,000  Level Edmonton Center
12:20AM 51.1167 -108.0000 270° West 450 518 38,000  Level Edmonton Center
12:21AM 51.1167 -108.1833 278° West 440 506 38,000  Level Edmonton Center
12:22AM 51.1333 -108.3833 278° West 450 518 38,000  Level Edmonton Center
12:23AM 51.1500 -108.5667 270° West 450 518 38,000  Level Edmonton Center
12:24AM 51.1500 -108.7833 285° West 450 518 38,000  Level Edmonton Center
12:25AM 51.1833 -108.9833 270° West 450 518 38,000  Level Edmonton Center
12:26AM 51.1833 -109.2000 278° West 450 518 38,000  Level Edmonton Center
12:27AM 51.2000 -109.3833 277° West 450 518 38,000  Level Edmonton Center
12:28AM 51.2167 -109.6000 270° West 450 518 38,000  Level Edmonton Center
12:29AM 51.2167 -109.7833 270° West 450 518 38,000  Level Edmonton Center
12:30AM 51.2167 -110.0000 278° West 450 518 38,000  Level Edmonton Center
12:31AM 51.2333 -110.2000 270° West 450 518 38,000  Level Edmonton Center
12:32AM 51.2333 -110.4167 278° West 450 518 38,000  Level Edmonton Center
12:33AM 51.2500 -110.6000 270° West 450 518 38,000  Level Edmonton Center
12:34AM 51.2500 -110.8000 277° West 450 518 38,000  Level Edmonton Center
12:35AM 51.2667 -111.0167 270° West 450 518 38,000  Level Edmonton Center
12:36AM 51.2667 -111.2000 270° West 450 518 38,000  Level Edmonton Center
12:37AM 51.2667 -111.4167 278° West 450 518 38,000  Level Edmonton Center
12:38AM 51.2833 -111.6000 270° West 450 518 38,000  Level Edmonton Center
12:39AM 51.2833 -111.8167 270° West 450 518 38,000 -960 Level Edmonton Center
12:40AM 51.2833 -112.0167 263° West 450 518 36,100 -2,640 Descending Edmonton Center
12:41AM 51.2667 -112.2333 270° West 450 518 32,800 -3,300 Descending Edmonton Center
12:42AM 51.2667 -112.4167 278° West 440 506 29,600 -3,300 Descending Edmonton Center
12:43AM 51.2833 -112.6167 270° West 430 495 26,300 -3,420 Descending Edmonton Center
12:44AM 51.2833 -112.8000 262° West 420 483 22,800 -3,360 Descending Edmonton Center
12:45AM 51.2667 -112.9833 270° West 410 472 19,600 -3,360 Descending Edmonton Center
12:46AM 51.2667 -113.1500 278° West 400 460 16,100 -3,300 Descending Edmonton Center
12:47AM 51.2833 -113.3333 270° West 390 449 13,000 -2,520 Descending Edmonton Center
12:48AM 51.2833 -113.5000 259° West 360 414 11,100 -1,560 Descending Edmonton Center
12:49AM 51.2667 -113.6333 283° West 310 357 9,900 -1,380 Descending Edmonton Center
12:50AM 51.2833 -113.7500 270° West 290 334 8,400 -1,680 Descending Edmonton Center
12:51AM 51.2833 -113.8833 255° West 270 311 6,600 -1,500 Descending Edmonton Center
12:52AM 51.2667 -113.9833 212° Southwest 270 311 5,400 -720 Descending Edmonton Center
12:53AM 51.2167 -114.0333 189° South 220 253 5,200 -300 Descending Edmonton Center
12:54AM 51.1500 -114.0500 163° South 200 230 4,800 -660 Descending Edmonton Center
12:55AM 51.1167 -114.0333 163° South 160 184 3,900 -900 Descending Edmonton Center